Current Weather

Francis S Gabreski

Westhampton Beach, New York (KFOK)

Report from: Tuesday, July 16, 2024 11:53 AM EDT
Current time: Tuesday, July 16, 2024 12:16 PM EDT

Nearby weather – Weather history – Daily summaries
Weather forecast

Temperature31.1°C (88.0°F)
Heat index35.4°C (95.8°F)
Dew point22.8°C (73.0°F)
Winds 7 kts (3.6 m/s, 8.1 mph) Southwest (220°)
Visibility10 mi. (16.1 km)
Clouds Sky clear
Altimeter29.86 in.Hg (1011 mB)
Relative humidity61 %
Density altitude2,289 ft. (698 m)
Sea-level pressure101.1 kPa (1011 mB, 29.85 in.Hg)
Remarks Automated weather observing station with precipitation discriminator
Flight conditions Visual Meteorological Conditions
Raw dataKFOK 161553Z 22007KT 10SM CLR 31/23 A2986 RMK AO2 SLP110 T03110228
An error has occurred. This application may no longer respond until reloaded. Reload 🗙